Sherman, Connecticut
Current Conditions -  °F | °C
As of 2:53 PM on Thursday 29 Jan 2015 (Local Time) from KDXR Reporting Station
Few Clouds Few Clouds  
Wind Chill: 24°   Ceiling: Unl
Heat Index: 31°   Visibility: 10mi
Dew Point: -1°   Wind: 7mph
Humidity: 26%   Direction: 180°S
Pressure: 30.17"   Gusts: NA
Location:  41.57°N, 73.49°W
Report Text: KDXR 291953Z 18006KT 10SM FEW120 M01/M18 A3017 RMK AO2 SLP223 T10061183
Loading
Personal Weather Stations






























Interactive Weather Map New forecast layout! Learn more

10-Day Weather Forecast

Advertisements
Track Severe Weather on mobile